Time;durP1;ratioP1;P1;durP2;ratioP2;P2;SDS_P1;SDS_P2;PMS_P1;PMS_P2;Temp;Humidity;BMP_temperature;BMP_pressure;BME280_temperature;BME280_humidity;BME280_pressure;Samples;Min_cycle;Max_cycle;Signal;HPM_P1;HPM_P2
2022/03/18 00:02:39;;;;;;;6.85;1.60;;;;;;;;;;5048537;28;20425;-64
2022/03/18 00:05:12;;;;;;;4.60;1.50;;;;;;;;;;5046874;28;20057;-62
2022/03/18 00:07:45;;;;;;;9.48;2.35;;;;;;;;;;5028145;28;20045;-62
2022/03/18 00:10:17;;;;;;;6.18;1.60;;;;;;;;;;5028356;28;20490;-62
2022/03/18 00:12:52;;;;;;;11.75;1.80;;;;;;;;;;5027941;28;20056;-62
2022/03/18 00:15:27;;;;;;;6.35;2.03;;;;;;;;;;5028601;28;20092;-63
2022/03/18 00:18:04;;;;;;;8.73;1.85;;;;;;;;;;5028149;28;20057;-62
2022/03/18 00:20:34;;;;;;;4.30;1.95;;;;;;;;;;5028524;28;20061;-62
2022/03/18 00:23:04;;;;;;;4.50;1.70;;;;;;;;;;5047866;28;20095;-62
2022/03/18 00:25:38;;;;;;;6.35;1.80;;;;;;;;;;5048092;28;20052;-62
2022/03/18 00:28:14;;;;;;;8.50;1.75;;;;;;;;;;5043224;28;20601;-62
2022/03/18 00:30:44;;;;;;;6.07;1.60;;;;;;;;;;5044429;28;20065;-62
2022/03/18 00:33:15;;;;;;;10.77;1.67;;;;;;;;;;5027950;28;20449;-62
2022/03/18 00:35:49;;;;;;;10.88;2.00;;;;;;;;;;5028275;28;20105;-62
2022/03/18 00:38:22;;;;;;;9.68;1.70;;;;;;;;;;4979176;28;20061;-63
2022/03/18 00:40:56;;;;;;;8.88;2.00;;;;;;;;;;5044489;28;20064;-62
2022/03/18 00:43:28;;;;;;;12.85;1.90;;;;;;;;;;5012398;28;20545;-62
2022/03/18 00:45:59;;;;;;;6.88;2.00;;;;;;;;;;5022929;28;20061;-63
2022/03/18 00:54:16;;;;;;;7.03;2.10;;;;;;;;;;5008735;28;20065;-63
2022/03/18 00:56:48;;;;;;;7.65;2.10;;;;;;;;;;4996370;28;20418;-62
2022/03/18 00:59:20;;;;;;;7.65;2.30;;;;;;;;;;4996282;28;21102;-62
2022/03/18 01:01:52;;;;;;;11.02;2.00;;;;;;;;;;5049174;28;20044;-63
2022/03/18 01:04:26;;;;;;;15.80;2.67;;;;;;;;;;5015602;28;20049;-63
2022/03/18 01:06:58;;;;;;;8.57;2.42;;;;;;;;;;5070046;28;20075;-62
2022/03/18 01:09:30;;;;;;;6.97;1.88;;;;;;;;;;4991807;28;20556;-63
2022/03/18 01:12:03;;;;;;;8.00;2.22;;;;;;;;;;4992314;28;20054;-63
2022/03/18 01:14:34;;;;;;;14.10;2.67;;;;;;;;;;4990324;28;20058;-63
2022/03/18 01:17:07;;;;;;;8.25;2.20;;;;;;;;;;4991376;28;20058;-63
2022/03/18 01:19:40;;;;;;;10.18;2.40;;;;;;;;;;4992026;28;20054;-63
2022/03/18 01:22:10;;;;;;;7.90;2.55;;;;;;;;;;4918320;29;20066;-63
2022/03/18 01:24:40;;;;;;;12.30;2.47;;;;;;;;;;4896086;29;20052;-63
2022/03/18 01:27:13;;;;;;;7.53;2.22;;;;;;;;;;4896106;29;20063;-63
2022/03/18 01:29:48;;;;;;;10.20;2.30;;;;;;;;;;4895928;29;20805;-63
2022/03/18 01:32:19;;;;;;;13.13;2.75;;;;;;;;;;4896194;29;20061;-63
2022/03/18 01:34:49;;;;;;;7.10;2.80;;;;;;;;;;4892191;29;20053;-63
2022/03/18 01:37:20;;;;;;;12.50;3.40;;;;;;;;;;4877279;29;20068;-63
2022/03/18 01:39:52;;;;;;;6.45;2.22;;;;;;;;;;4876817;29;20053;-63
2022/03/18 01:42:22;;;;;;;5.88;2.30;;;;;;;;;;4846332;29;20197;-63
2022/03/18 01:44:52;;;;;;;13.13;2.58;;;;;;;;;;4877265;29;20399;-62
2022/03/18 01:47:24;;;;;;;10.63;2.30;;;;;;;;;;4910589;29;20066;-63
2022/03/18 01:49:58;;;;;;;10.77;2.42;;;;;;;;;;4914602;29;20067;-62
2022/03/18 01:52:30;;;;;;;7.65;2.88;;;;;;;;;;4914544;29;20080;-62
2022/03/18 01:55:00;;;;;;;10.63;2.85;;;;;;;;;;4898394;29;20055;-63
2022/03/18 01:57:31;;;;;;;5.18;2.33;;;;;;;;;;4914153;29;20059;-62
2022/03/18 02:00:06;;;;;;;6.15;3.00;;;;;;;;;;4950754;28;20070;-63
2022/03/18 02:02:39;;;;;;;8.98;2.47;;;;;;;;;;4972288;28;20051;-63
2022/03/18 02:05:12;;;;;;;5.90;2.13;;;;;;;;;;4971909;28;20415;-62
2022/03/18 02:07:46;;;;;;;5.60;2.30;;;;;;;;;;4983323;28;20053;-62
2022/03/18 02:10:21;;;;;;;13.68;2.83;;;;;;;;;;4991295;28;20047;-63
2022/03/18 02:12:52;;;;;;;8.30;2.53;;;;;;;;;;5003985;28;20052;-62
2022/03/18 02:15:24;;;;;;;13.55;2.55;;;;;;;;;;5010617;28;20054;-63
2022/03/18 02:17:55;;;;;;;10.88;2.70;;;;;;;;;;5037477;28;20209;-62
2022/03/18 02:20:27;;;;;;;8.98;2.28;;;;;;;;;;5049893;28;20045;-63
2022/03/18 02:22:59;;;;;;;13.35;2.42;;;;;;;;;;5050442;28;20057;-62
2022/03/18 02:25:30;;;;;;;17.30;2.95;;;;;;;;;;5001025;28;20053;-63
2022/03/18 02:28:04;;;;;;;8.73;2.25;;;;;;;;;;5016624;28;20061;-62
2022/03/18 02:30:40;;;;;;;7.82;2.38;;;;;;;;;;4995240;28;20096;-62
2022/03/18 02:33:11;;;;;;;9.32;2.40;;;;;;;;;;4993871;28;20058;-62
2022/03/18 02:35:42;;;;;;;4.07;2.10;;;;;;;;;;4990317;28;20057;-62
2022/03/18 02:38:14;;;;;;;8.25;2.65;;;;;;;;;;4974828;28;20057;-62
2022/03/18 02:40:50;;;;;;;9.65;2.65;;;;;;;;;;4990366;28;20095;-63
2022/03/18 02:43:20;;;;;;;9.48;2.65;;;;;;;;;;4958774;28;20058;-63
2022/03/18 02:45:51;;;;;;;8.60;2.40;;;;;;;;;;4990611;28;20062;-62
2022/03/18 02:48:28;;;;;;;12.65;3.05;;;;;;;;;;4990714;28;20054;-62
2022/03/18 02:50:59;;;;;;;9.48;2.42;;;;;;;;;;4990391;28;20054;-62
2022/03/18 02:53:31;;;;;;;8.77;2.53;;;;;;;;;;4974750;28;20466;-63
2022/03/18 02:56:04;;;;;;;7.00;2.35;;;;;;;;;;4970547;28;20055;-62
2022/03/18 02:58:37;;;;;;;9.00;2.40;;;;;;;;;;4984922;28;20054;-62
2022/03/18 03:01:09;;;;;;;6.07;2.30;;;;;;;;;;4990195;28;20438;-62
2022/03/18 03:03:40;;;;;;;5.85;2.28;;;;;;;;;;4990490;28;20518;-63
2022/03/18 03:08:59;;;;;;;5.60;2.10;;;;;;;;;;5009661;28;20049;-63
2022/03/18 03:11:30;;;;;;;11.35;2.22;;;;;;;;;;4954708;28;20102;-62
2022/03/18 03:14:03;;;;;;;5.75;2.00;;;;;;;;;;4969607;28;20078;-63
2022/03/18 03:16:43;;;;;;;12.88;2.70;;;;;;;;;;4919923;29;20058;-62
2022/03/18 03:19:14;;;;;;;8.88;2.65;;;;;;;;;;4950835;28;20205;-62
2022/03/18 03:21:44;;;;;;;5.10;2.10;;;;;;;;;;4951077;29;20059;-63
2022/03/18 03:24:21;;;;;;;10.38;2.22;;;;;;;;;;4912885;29;20056;-63
2022/03/18 03:26:55;;;;;;;13.05;2.80;;;;;;;;;;4913042;29;20056;-63
2022/03/18 03:29:28;;;;;;;6.38;2.03;;;;;;;;;;4912775;29;20052;-63
2022/03/18 03:31:59;;;;;;;5.00;2.05;;;;;;;;;;4912871;29;20056;-63
2022/03/18 03:34:30;;;;;;;8.05;2.40;;;;;;;;;;4945382;29;20055;-63
2022/03/18 03:37:02;;;;;;;7.63;2.47;;;;;;;;;;4950928;29;20051;-63
2022/03/18 03:39:32;;;;;;;6.05;2.42;;;;;;;;;;4912468;29;20052;-63
2022/03/18 03:42:03;;;;;;;7.07;2.17;;;;;;;;;;4912819;29;20813;-63
2022/03/18 03:44:36;;;;;;;15.38;2.60;;;;;;;;;;4912727;29;20091;-63
2022/03/18 03:47:09;;;;;;;6.40;2.10;;;;;;;;;;4912811;29;20059;-63
2022/03/18 03:49:40;;;;;;;12.02;2.75;;;;;;;;;;4954072;28;20065;-63
2022/03/18 03:52:11;;;;;;;7.80;2.33;;;;;;;;;;4953925;28;20059;-62
2022/03/18 03:54:42;;;;;;;5.60;2.13;;;;;;;;;;4995802;28;20057;-62
2022/03/18 03:57:14;;;;;;;4.22;2.22;;;;;;;;;;5008678;28;20057;-63
2022/03/18 03:59:44;;;;;;;7.68;2.08;;;;;;;;;;5008751;28;20049;-63
2022/03/18 04:02:15;;;;;;;9.98;2.35;;;;;;;;;;4993511;28;20053;-63
2022/03/18 04:04:50;;;;;;;17.30;2.50;;;;;;;;;;5008522;28;20065;-63
2022/03/18 04:07:24;;;;;;;6.32;2.55;;;;;;;;;;5008651;28;20053;-63
2022/03/18 04:09:56;;;;;;;7.57;2.47;;;;;;;;;;4988682;28;20053;-63
2022/03/18 04:12:26;;;;;;;5.97;2.33;;;;;;;;;;4988972;28;20059;-63
2022/03/18 04:14:57;;;;;;;5.72;2.40;;;;;;;;;;4988751;28;20098;-63
2022/03/18 04:17:35;;;;;;;16.23;2.40;;;;;;;;;;4936334;28;20708;-63
2022/03/18 04:20:09;;;;;;;9.55;2.40;;;;;;;;;;4949976;29;20059;-63
2022/03/18 04:22:40;;;;;;;4.60;2.15;;;;;;;;;;4898676;29;20051;-63
2022/03/18 04:25:11;;;;;;;10.32;2.30;;;;;;;;;;4930839;29;20063;-63
2022/03/18 04:27:42;;;;;;;5.05;2.30;;;;;;;;;;4915082;29;20487;-63
2022/03/18 04:30:13;;;;;;;7.70;2.10;;;;;;;;;;4899982;29;20052;-63
2022/03/18 04:32:44;;;;;;;7.88;2.63;;;;;;;;;;4938869;29;20066;-63
2022/03/18 04:35:14;;;;;;;6.30;2.17;;;;;;;;;;4953626;29;20054;-63
2022/03/18 04:37:44;;;;;;;6.07;2.38;;;;;;;;;;4954200;29;20063;-63
2022/03/18 04:40:15;;;;;;;7.18;2.20;;;;;;;;;;4953471;29;20503;-63
2022/03/18 04:42:46;;;;;;;6.88;2.40;;;;;;;;;;4954079;29;20081;-63
2022/03/18 04:45:16;;;;;;;5.53;2.63;;;;;;;;;;4953770;29;20058;-63
2022/03/18 04:47:46;;;;;;;5.65;2.03;;;;;;;;;;4953340;29;20054;-63
2022/03/18 04:50:17;;;;;;;6.80;2.35;;;;;;;;;;4953774;29;20059;-63
2022/03/18 04:52:47;;;;;;;10.20;1.80;;;;;;;;;;4937456;28;20051;-63
2022/03/18 04:55:18;;;;;;;5.50;2.40;;;;;;;;;;4953453;29;20610;-63
2022/03/18 04:57:49;;;;;;;8.95;2.28;;;;;;;;;;4953496;28;20436;-63
2022/03/18 05:00:24;;;;;;;7.60;2.20;;;;;;;;;;4943756;29;20195;-63
2022/03/18 05:02:57;;;;;;;4.22;2.17;;;;;;;;;;4934510;29;20099;-63
2022/03/18 05:05:29;;;;;;;;;;;;;;;;;;4950084;28;20051;-63
2022/03/18 05:08:00;;;;;;;10.73;2.70;;;;;;;;;;4946498;29;19923;-63
2022/03/18 05:10:32;;;;;;;;;;;;;;;;;;4915587;29;20064;-63
2022/03/18 05:13:02;;;;;;;6.30;1.95;;;;;;;;;;4925680;29;19929;-64
2022/03/18 05:15:35;;;;;;;7.40;2.25;;;;;;;;;;4934117;29;20071;-62
2022/03/18 05:18:06;;;;;;;8.13;2.42;;;;;;;;;;4945226;28;20455;-63
2022/03/18 05:20:43;;;;;;;5.07;2.25;;;;;;;;;;4953206;29;20066;-62
2022/03/18 05:23:14;;;;;;;5.65;2.42;;;;;;;;;;4937656;29;20055;-63
2022/03/18 05:25:45;;;;;;;14.80;2.53;;;;;;;;;;4958261;28;20058;-63
2022/03/18 05:28:17;;;;;;;8.52;2.60;;;;;;;;;;4924301;28;20098;-63
2022/03/18 05:30:50;;;;;;;5.22;2.55;;;;;;;;;;4972076;28;20523;-63
2022/03/18 05:33:21;;;;;;;5.00;2.45;;;;;;;;;;4998274;28;20050;-63
2022/03/18 05:35:51;;;;;;;10.02;2.35;;;;;;;;;;5011140;28;20054;-62
2022/03/18 05:38:23;;;;;;;9.55;2.30;;;;;;;;;;5017944;28;20057;-63
2022/03/18 05:40:54;;;;;;;6.95;2.50;;;;;;;;;;5050931;28;20520;-63
2022/03/18 05:43:24;;;;;;;5.47;2.53;;;;;;;;;;5050647;28;20677;-63
2022/03/18 05:45:56;;;;;;;8.43;2.22;;;;;;;;;;5017960;28;20053;-62
2022/03/18 05:48:28;;;;;;;6.47;2.35;;;;;;;;;;5051106;28;20053;-63
2022/03/18 05:51:02;;;;;;;8.77;2.85;;;;;;;;;;5050757;28;20049;-62
2022/03/18 05:53:33;;;;;;;6.13;2.38;;;;;;;;;;5050647;28;20037;-63
2022/03/18 05:58:57;;;;;;;7.38;2.13;;;;;;;;;;5050559;28;20057;-63
2022/03/18 06:01:33;;;;;;;6.97;2.35;;;;;;;;;;5050490;28;20493;-63
2022/03/18 06:04:05;;;;;;;7.60;2.30;;;;;;;;;;5014641;28;20068;-62
2022/03/18 06:06:42;;;;;;;6.82;3.10;;;;;;;;;;5010326;28;20086;-62
2022/03/18 06:12:09;;;;;;;6.97;2.70;;;;;;;;;;4978681;28;20054;-63
2022/03/18 06:14:39;;;;;;;6.38;2.72;;;;;;;;;;5010479;28;20045;-63
2022/03/18 06:17:09;;;;;;;9.73;3.00;;;;;;;;;;5010745;28;20050;-62
2022/03/18 06:19:41;;;;;;;5.80;2.80;;;;;;;;;;4995120;28;20058;-63
2022/03/18 06:22:15;;;;;;;9.00;2.53;;;;;;;;;;4977931;28;20054;-62
2022/03/18 06:24:47;;;;;;;8.02;2.50;;;;;;;;;;4962919;28;20087;-63
2022/03/18 06:27:19;;;;;;;4.80;2.17;;;;;;;;;;5010434;28;20061;-63
2022/03/18 06:29:51;;;;;;;10.55;2.40;;;;;;;;;;5010357;28;20054;-62
2022/03/18 06:32:24;;;;;;;5.75;2.35;;;;;;;;;;4993745;28;20049;-62
2022/03/18 06:34:55;;;;;;;7.18;3.10;;;;;;;;;;5010190;28;20062;-63
2022/03/18 06:37:26;;;;;;;7.40;2.60;;;;;;;;;;4990253;28;20066;-63
2022/03/18 06:39:57;;;;;;;9.13;2.90;;;;;;;;;;4990557;28;20383;-62
2022/03/18 06:42:29;;;;;;;7.90;2.38;;;;;;;;;;5002409;28;20043;-63
2022/03/18 06:45:00;;;;;;;8.95;2.30;;;;;;;;;;5006101;28;20054;-62
2022/03/18 06:47:31;;;;;;;8.60;2.40;;;;;;;;;;4971020;28;20061;-63
2022/03/18 06:50:05;;;;;;;7.07;2.53;;;;;;;;;;4970933;28;20061;-63
2022/03/18 06:52:37;;;;;;;8.13;2.50;;;;;;;;;;4970874;28;20507;-62
2022/03/18 06:55:08;;;;;;;4.00;2.33;;;;;;;;;;4954095;28;20059;-63
2022/03/18 06:57:38;;;;;;;6.00;2.38;;;;;;;;;;4955894;28;20590;-63
2022/03/18 07:00:11;;;;;;;14.63;2.85;;;;;;;;;;4951408;28;20055;-63
2022/03/18 07:02:42;;;;;;;5.78;2.13;;;;;;;;;;4951348;28;20059;-63
2022/03/18 07:05:12;;;;;;;7.03;2.42;;;;;;;;;;4951250;28;20059;-63
2022/03/18 07:07:43;;;;;;;7.95;2.47;;;;;;;;;;4904425;28;20063;-63
2022/03/18 07:10:38;;;;;;;4.78;2.10;;;;;;;;;;4890117;29;20071;-63
2022/03/18 07:13:11;;;;;;;8.00;2.38;;;;;;;;;;4881573;29;20048;-64
2022/03/18 07:15:41;;;;;;;8.75;2.63;;;;;;;;;;4910933;29;20047;-63
2022/03/18 07:18:14;;;;;;;8.95;2.33;;;;;;;;;;4932179;29;20060;-63
2022/03/18 07:20:46;;;;;;;7.60;2.20;;;;;;;;;;4929931;29;20055;-63
2022/03/18 07:23:21;;;;;;;8.25;2.15;;;;;;;;;;4935900;29;20621;-63
2022/03/18 07:25:51;;;;;;;5.65;2.38;;;;;;;;;;4997438;28;20073;-63
2022/03/18 07:28:26;;;;;;;5.15;2.38;;;;;;;;;;5009474;28;20042;-63
2022/03/18 07:30:56;;;;;;;9.50;2.65;;;;;;;;;;4976423;28;20057;-63
2022/03/18 07:33:29;;;;;;;;;;;;;;;;;;5009677;28;20414;-64
2022/03/18 07:36:04;;;;;;;5.10;2.25;;;;;;;;;;4989306;28;19922;-63
2022/03/18 07:38:39;;;;;;;5.35;2.20;;;;;;;;;;4974841;28;20054;-63
2022/03/18 07:41:11;;;;;;;6.20;2.30;;;;;;;;;;4989459;28;20054;-63
2022/03/18 07:43:43;;;;;;;6.10;2.33;;;;;;;;;;4973382;28;20050;-63
2022/03/18 07:46:13;;;;;;;5.85;2.70;;;;;;;;;;4989463;28;20057;-63
2022/03/18 07:48:44;;;;;;;8.07;2.38;;;;;;;;;;5023339;28;20057;-64
2022/03/18 07:51:15;;;;;;;11.65;2.40;;;;;;;;;;5013108;28;20665;-63
2022/03/18 07:53:47;;;;;;;6.30;2.28;;;;;;;;;;4996294;28;20068;-63
2022/03/18 07:56:17;;;;;;;11.13;2.58;;;;;;;;;;4983648;28;20056;-63
2022/03/18 07:58:50;;;;;;;7.10;2.50;;;;;;;;;;5048406;28;20064;-63
2022/03/18 08:01:20;;;;;;;8.82;2.75;;;;;;;;;;4998799;28;20060;-63
2022/03/18 08:03:52;;;;;;;12.43;2.20;;;;;;;;;;5048478;28;20385;-63
2022/03/18 08:06:22;;;;;;;6.80;2.47;;;;;;;;;;5008306;28;20050;-64
2022/03/18 08:08:58;;;;;;;9.23;2.35;;;;;;;;;;5008616;28;20078;-64
2022/03/18 08:11:30;;;;;;;7.45;2.03;;;;;;;;;;5008724;28;20061;-63
2022/03/18 08:14:03;;;;;;;9.25;2.35;;;;;;;;;;5021392;28;20058;-63
2022/03/18 08:16:33;;;;;;;6.90;2.22;;;;;;;;;;5008604;28;20046;-63
2022/03/18 08:19:04;;;;;;;13.48;2.38;;;;;;;;;;5008455;28;20069;-63
2022/03/18 08:21:36;;;;;;;8.60;2.22;;;;;;;;;;5008563;28;20085;-64
2022/03/18 08:24:09;;;;;;;5.88;2.30;;;;;;;;;;5008559;28;20054;-64
2022/03/18 08:26:39;;;;;;;5.50;2.53;;;;;;;;;;4960221;28;20634;-64
2022/03/18 08:29:11;;;;;;;6.93;2.35;;;;;;;;;;5008299;28;20093;-63
2022/03/18 08:31:42;;;;;;;5.65;2.05;;;;;;;;;;5008498;28;20054;-64
2022/03/18 08:34:15;;;;;;;5.28;2.97;;;;;;;;;;5008417;28;20083;-63
2022/03/18 08:36:47;;;;;;;5.78;2.33;;;;;;;;;;5008674;28;20101;-63
2022/03/18 08:39:17;;;;;;;6.93;2.40;;;;;;;;;;5008429;28;20050;-63
2022/03/18 08:41:51;;;;;;;10.55;2.47;;;;;;;;;;4992572;28;20069;-63
2022/03/18 08:44:23;;;;;;;8.48;2.30;;;;;;;;;;4992680;28;20062;-64
2022/03/18 08:46:53;;;;;;;5.45;2.50;;;;;;;;;;5008451;28;20062;-63
2022/03/18 08:49:27;;;;;;;9.85;2.38;;;;;;;;;;5008339;28;20050;-63
2022/03/18 08:51:59;;;;;;;4.18;2.00;;;;;;;;;;5008166;28;20561;-63
2022/03/18 08:54:30;;;;;;;4.93;2.17;;;;;;;;;;4993831;28;20050;-64
2022/03/18 08:57:00;;;;;;;4.75;2.47;;;;;;;;;;4975046;28;20049;-64
2022/03/18 08:59:31;;;;;;;6.88;2.28;;;;;;;;;;4992139;28;20065;-64
2022/03/18 09:02:05;;;;;;;5.90;2.45;;;;;;;;;;5008015;28;20053;-64
2022/03/18 09:04:37;;;;;;;7.50;3.20;;;;;;;;;;5008318;28;20042;-63
2022/03/18 09:07:12;;;;;;;7.00;2.55;;;;;;;;;;4991588;28;20054;-64
2022/03/18 09:09:42;;;;;;;7.35;2.20;;;;;;;;;;5008046;28;20050;-63
2022/03/18 09:12:19;;;;;;;4.70;2.17;;;;;;;;;;4992238;28;20054;-63
2022/03/18 09:14:51;;;;;;;5.25;2.15;;;;;;;;;;5008104;28;20057;-63
2022/03/18 09:17:22;;;;;;;7.65;2.70;;;;;;;;;;5008874;28;20045;-63
2022/03/18 09:19:53;;;;;;;5.65;2.30;;;;;;;;;;4962997;28;20046;-63
2022/03/18 09:22:25;;;;;;;5.32;2.47;;;;;;;;;;4983022;28;20049;-63
2022/03/18 09:24:56;;;;;;;12.88;2.40;;;;;;;;;;5031401;28;20057;-63
2022/03/18 09:27:26;;;;;;;7.35;2.33;;;;;;;;;;4991861;28;20058;-63
2022/03/18 09:30:00;;;;;;;5.65;2.00;;;;;;;;;;4991751;28;20058;-63
2022/03/18 09:32:34;;;;;;;4.85;1.98;;;;;;;;;;4952715;28;20060;-63
2022/03/18 09:35:07;;;;;;;5.70;2.22;;;;;;;;;;4905829;28;20063;-63
2022/03/18 09:37:38;;;;;;;11.18;2.47;;;;;;;;;;4952931;28;20058;-63
2022/03/18 09:40:12;;;;;;;8.88;2.03;;;;;;;;;;4971847;28;20054;-63
2022/03/18 09:43:07;;;;;;;4.70;2.00;;;;;;;;;;4933864;29;20496;-63
2022/03/18 09:45:39;;;;;;;13.35;2.42;;;;;;;;;;4918328;29;20086;-63
2022/03/18 09:48:17;;;;;;;5.57;2.22;;;;;;;;;;4933686;29;20444;-63
2022/03/18 09:50:49;;;;;;;9.45;2.55;;;;;;;;;;4933573;29;20428;-64
2022/03/18 09:53:21;;;;;;;9.30;2.72;;;;;;;;;;4902200;29;20428;-63
2022/03/18 09:55:53;;;;;;;6.00;2.28;;;;;;;;;;4901466;29;20421;-63
2022/03/18 09:58:25;;;;;;;7.88;2.53;;;;;;;;;;4887494;29;20052;-64
2022/03/18 10:01:01;;;;;;;7.53;2.10;;;;;;;;;;4933648;29;20060;-63
2022/03/18 10:03:41;;;;;;;10.43;2.22;;;;;;;;;;4918552;29;20063;-63
2022/03/18 10:06:16;;;;;;;7.57;2.70;;;;;;;;;;4895389;29;20067;-64
2022/03/18 10:08:50;;;;;;;7.68;2.00;;;;;;;;;;4895511;29;20071;-64
2022/03/18 10:11:23;;;;;;;6.78;2.67;;;;;;;;;;4912974;29;20535;-63
2022/03/18 10:14:07;;;;;;;10.10;2.33;;;;;;;;;;4914156;29;20076;-63
2022/03/18 10:16:54;;;;;;;16.65;2.38;;;;;;;;;;4929374;29;20083;-64
2022/03/18 10:19:25;;;;;;;17.65;2.38;;;;;;;;;;4868157;29;20052;-63
2022/03/18 10:22:03;;;;;;;17.38;2.38;;;;;;;;;;4932761;29;20066;-63
2022/03/18 10:24:38;;;;;;;10.02;2.58;;;;;;;;;;4933185;29;20091;-63
2022/03/18 10:27:21;;;;;;;8.57;2.45;;;;;;;;;;4916220;29;20060;-64
2022/03/18 10:29:56;;;;;;;7.03;2.38;;;;;;;;;;4948527;28;20086;-64
2022/03/18 10:32:32;;;;;;;13.27;2.70;;;;;;;;;;4901144;29;20558;-64
2022/03/18 10:37:54;;;;;;;8.20;2.13;;;;;;;;;;4894938;29;20413;-65
2022/03/18 10:40:36;;;;;;;9.80;2.63;;;;;;;;;;4894954;29;20060;-65
2022/03/18 10:43:08;;;;;;;5.63;2.20;;;;;;;;;;4950338;28;20470;-65
2022/03/18 10:46:08;;;;;;;12.68;2.40;;;;;;;;;;4970609;28;20474;-65
2022/03/18 10:49:04;;;;;;;7.97;2.70;;;;;;;;;;4971216;28;20070;-65
2022/03/18 10:51:37;;;;;;;8.80;2.92;;;;;;;;;;4971404;28;20070;-65
2022/03/18 10:54:08;;;;;;;8.80;2.75;;;;;;;;;;4970844;28;20407;-65
2022/03/18 10:56:58;;;;;;;10.63;3.20;;;;;;;;;;4990424;28;20409;-65
2022/03/18 10:59:32;;;;;;;10.63;3.08;;;;;;;;;;5029312;28;20062;-65
2022/03/18 11:02:05;;;;;;;19.45;3.67;;;;;;;;;;5013651;28;20465;-65
2022/03/18 11:04:41;;;;;;;6.38;2.85;;;;;;;;;;5013948;28;20060;-65
2022/03/18 11:07:30;;;;;;;13.75;3.90;;;;;;;;;;4981537;28;20472;-65
2022/03/18 11:12:55;;;;;;;5.65;2.92;;;;;;;;;;4997877;28;20050;-65
2022/03/18 11:15:26;;;;;;;;;;;;;;;;;;4990549;28;20546;-66
2022/03/18 11:18:03;;;;;;;9.95;2.97;;;;;;;;;;4989884;28;19922;-65
2022/03/18 11:20:42;;;;;;;8.60;2.47;;;;;;;;;;4949929;28;20054;-65
2022/03/18 11:23:16;;;;;;;8.02;2.30;;;;;;;;;;5028009;28;20053;-65
2022/03/18 11:25:52;;;;;;;5.00;2.00;;;;;;;;;;5049109;28;20060;-65
2022/03/18 11:28:26;;;;;;;12.15;2.60;;;;;;;;;;5016192;28;20048;-65
2022/03/18 11:31:07;;;;;;;8.00;2.88;;;;;;;;;;5048943;28;20056;-65
2022/03/18 11:33:38;;;;;;;9.77;2.38;;;;;;;;;;5049145;28;20401;-65
2022/03/18 11:36:14;;;;;;;11.13;2.40;;;;;;;;;;5015793;28;20124;-65
2022/03/18 11:38:56;;;;;;;10.25;2.22;;;;;;;;;;4957857;28;20053;-65
2022/03/18 11:41:48;;;;;;;13.57;2.67;;;;;;;;;;4989004;28;20087;-65
2022/03/18 11:44:36;;;;;;;6.10;2.35;;;;;;;;;;4989632;28;20419;-65
2022/03/18 11:47:22;;;;;;;7.55;2.28;;;;;;;;;;4989537;28;20058;-65
2022/03/18 11:50:44;;;;;;;6.60;2.30;;;;;;;;;;4996242;28;20057;-65
2022/03/18 11:53:47;;;;;;;9.65;3.25;;;;;;;;;;5008642;28;20050;-65
2022/03/18 11:56:21;;;;;;;6.55;2.88;;;;;;;;;;5008837;28;20568;-65
2022/03/18 11:58:53;;;;;;;8.27;2.90;;;;;;;;;;4976156;28;20054;-65
2022/03/18 12:01:40;;;;;;;8.07;3.10;;;;;;;;;;5008790;28;20046;-65
2022/03/18 12:04:38;;;;;;;8.85;3.70;;;;;;;;;;4976560;28;20050;-65
2022/03/18 12:07:19;;;;;;;11.95;3.42;;;;;;;;;;5008903;28;20046;-65
2022/03/18 12:09:52;;;;;;;13.02;3.35;;;;;;;;;;4944905;28;20045;-65
2022/03/18 12:12:33;;;;;;;9.05;3.55;;;;;;;;;;5008558;28;20045;-65
2022/03/18 12:15:17;;;;;;;10.23;3.67;;;;;;;;;;4975936;28;20548;-65
2022/03/18 12:17:54;;;;;;;20.67;6.05;;;;;;;;;;5017524;28;20460;-65
2022/03/18 12:20:31;;;;;;;17.58;10.52;;;;;;;;;;4999173;28;20048;-66
2022/03/18 12:23:07;;;;;;;23.63;12.23;;;;;;;;;;5048186;28;20056;-66
2022/03/18 12:25:40;;;;;;;19.92;10.45;;;;;;;;;;5052110;28;20060;-65
2022/03/18 12:28:10;;;;;;;16.42;9.00;;;;;;;;;;5070639;28;20063;-66
2022/03/18 12:30:42;;;;;;;13.77;7.25;;;;;;;;;;5051882;28;20053;-66
2022/03/18 12:33:19;;;;;;;12.70;6.53;;;;;;;;;;5070357;28;20048;-66
2022/03/18 12:35:53;;;;;;;10.38;5.30;;;;;;;;;;5047758;28;20053;-66
2022/03/18 12:38:23;;;;;;;11.20;4.38;;;;;;;;;;4998804;28;20045;-66
2022/03/18 12:40:57;;;;;;;42.10;7.88;;;;;;;;;;4988739;28;20057;-66
2022/03/18 12:43:32;;;;;;;18.17;5.20;;;;;;;;;;4988600;28;20058;-66
2022/03/18 12:46:05;;;;;;;28.35;6.22;;;;;;;;;;4988793;28;20050;-67
2022/03/18 12:48:34;;;;;;;;;;;;;;;;;;4956736;28;20573;-67
2022/03/18 12:51:05;;;;;;;12.05;4.28;;;;;;;;;;4988939;28;19922;-66
2022/03/18 12:53:37;;;;;;;16.95;4.57;;;;;;;;;;4991929;28;20499;-67
2022/03/18 12:56:22;;;;;;;6.70;2.40;;;;;;;;;;4943020;28;20059;-66
2022/03/18 12:58:57;;;;;;;5.25;2.60;;;;;;;;;;4927057;28;20140;-66
2022/03/18 13:01:57;;;;;;;7.25;2.70;;;;;;;;;;4973117;28;20053;-66
2022/03/18 13:04:28;;;;;;;7.25;2.83;;;;;;;;;;4973012;28;20059;-66
2022/03/18 13:06:59;;;;;;;11.23;3.60;;;;;;;;;;4972953;28;20062;-66
2022/03/18 13:09:53;;;;;;;8.27;3.80;;;;;;;;;;4947682;28;20066;-66
2022/03/18 13:12:27;;;;;;;8.27;3.35;;;;;;;;;;4941633;28;20059;-66
2022/03/18 13:15:11;;;;;;;6.28;3.42;;;;;;;;;;4992385;28;20058;-66
2022/03/18 13:17:48;;;;;;;7.28;3.25;;;;;;;;;;4999659;28;20387;-66
2022/03/18 13:20:27;;;;;;;8.15;3.33;;;;;;;;;;4999055;28;20064;-66
2022/03/18 13:23:00;;;;;;;8.50;3.20;;;;;;;;;;5031703;28;20054;-66
2022/03/18 13:25:35;;;;;;;7.00;3.10;;;;;;;;;;5015595;28;20064;-64
2022/03/18 13:28:08;;;;;;;11.90;3.72;;;;;;;;;;5031772;28;20064;-64
2022/03/18 13:33:45;;;;;;;38.97;7.05;;;;;;;;;;5000404;28;20044;-64
2022/03/18 13:36:32;;;;;;;6.55;2.20;;;;;;;;;;5038887;28;20044;-64
2022/03/18 13:39:05;;;;;;;4.43;1.10;;;;;;;;;;5054675;28;20040;-65
2022/03/18 13:41:48;;;;;;;2.42;0.85;;;;;;;;;;5038601;28;20048;-64
2022/03/18 13:44:21;;;;;;;2.38;0.95;;;;;;;;;;5072264;28;20071;-65
2022/03/18 13:47:05;;;;;;;2.30;0.82;;;;;;;;;;5071543;28;20413;-64
2022/03/18 13:49:36;;;;;;;1.50;0.70;;;;;;;;;;5073322;28;20056;-65
2022/03/18 13:52:12;;;;;;;1.55;1.00;;;;;;;;;;5073392;28;20044;-64
2022/03/18 13:54:53;;;;;;;1.50;1.00;;;;;;;;;;5054813;28;20407;-65
2022/03/18 13:57:24;;;;;;;2.85;0.80;;;;;;;;;;5017511;28;20056;-64
2022/03/18 13:59:59;;;;;;;2.78;0.70;;;;;;;;;;4981383;28;20037;-65
2022/03/18 14:02:40;;;;;;;3.00;0.80;;;;;;;;;;5030343;28;20101;-64
2022/03/18 14:05:23;;;;;;;3.38;0.98;;;;;;;;;;4998048;28;20122;-65
2022/03/18 14:07:53;;;;;;;0.93;0.70;;;;;;;;;;5030424;28;20072;-64
2022/03/18 14:10:39;;;;;;;1.77;0.82;;;;;;;;;;5014588;28;20056;-65
2022/03/18 14:13:13;;;;;;;2.00;0.60;;;;;;;;;;5014565;28;20041;-65
2022/03/18 14:15:49;;;;;;;1.90;0.63;;;;;;;;;;5013892;28;20061;-64
2022/03/18 14:18:21;;;;;;;1.23;0.60;;;;;;;;;;5010333;28;20065;-64
2022/03/18 14:20:54;;;;;;;1.05;0.60;;;;;;;;;;5010595;28;20050;-65
2022/03/18 14:23:32;;;;;;;1.52;0.70;;;;;;;;;;5009928;28;20267;-66
2022/03/18 14:26:12;;;;;;;1.65;0.73;;;;;;;;;;5010092;28;20446;-65
2022/03/18 14:28:48;;;;;;;2.08;0.80;;;;;;;;;;4994975;28;20053;-65
2022/03/18 14:31:19;;;;;;;3.03;0.82;;;;;;;;;;5009943;28;20057;-65
2022/03/18 14:33:52;;;;;;;1.80;1.00;;;;;;;;;;5009467;28;20046;-65
2022/03/18 14:36:24;;;;;;;3.25;0.88;;;;;;;;;;4998689;28;20053;-65
2022/03/18 14:38:55;;;;;;;1.88;0.80;;;;;;;;;;5010449;28;20061;-65
2022/03/18 14:41:27;;;;;;;2.33;0.80;;;;;;;;;;4978357;28;20058;-65
2022/03/18 14:43:59;;;;;;;3.00;0.90;;;;;;;;;;5002559;28;20054;-65
2022/03/18 14:46:30;;;;;;;4.40;0.85;;;;;;;;;;4993589;28;20066;-65
2022/03/18 14:49:01;;;;;;;5.32;0.80;;;;;;;;;;4990764;28;20054;-65
2022/03/18 14:51:35;;;;;;;6.07;0.90;;;;;;;;;;4975213;28;20058;-65
2022/03/18 14:54:07;;;;;;;1.58;1.05;;;;;;;;;;4990365;28;20058;-65
2022/03/18 14:56:40;;;;;;;0.70;0.63;;;;;;;;;;5020588;28;20053;-65
2022/03/18 14:59:11;;;;;;;1.67;1.05;;;;;;;;;;4997725;28;20050;-65
2022/03/18 15:01:48;;;;;;;2.38;0.60;;;;;;;;;;4957722;28;20053;-65
2022/03/18 15:04:20;;;;;;;1.90;0.90;;;;;;;;;;4994439;28;20510;-65
2022/03/18 15:06:52;;;;;;;1.40;0.75;;;;;;;;;;5022395;28;20052;-65
2022/03/18 15:09:24;;;;;;;3.38;0.82;;;;;;;;;;5069644;28;20052;-65
2022/03/18 15:11:54;;;;;;;2.70;1.33;;;;;;;;;;4992983;28;20057;-65
2022/03/18 15:14:31;;;;;;;1.83;0.95;;;;;;;;;;4961663;28;20057;-65
2022/03/18 15:17:11;;;;;;;2.10;0.88;;;;;;;;;;4976726;28;20042;-65
2022/03/18 15:19:42;;;;;;;4.00;0.80;;;;;;;;;;4976996;28;20126;-65
2022/03/18 15:22:14;;;;;;;;;;;;;;;;;;4994310;28;20050;-65
2022/03/18 15:24:48;;;;;;;1.98;0.75;;;;;;;;;;5009790;28;19922;-65
2022/03/18 15:27:20;;;;;;;1.30;0.75;;;;;;;;;;5009707;28;20142;-65
2022/03/18 15:29:52;;;;;;;2.08;0.73;;;;;;;;;;5009390;28;20066;-65
2022/03/18 15:32:22;;;;;;;1.27;0.65;;;;;;;;;;5009328;28;20078;-65
2022/03/18 15:34:58;;;;;;;1.95;0.65;;;;;;;;;;5009425;28;20473;-65
2022/03/18 15:37:29;;;;;;;4.15;0.63;;;;;;;;;;5039279;28;20053;-65
2022/03/18 15:39:59;;;;;;;2.10;0.63;;;;;;;;;;5028481;28;20057;-65
2022/03/18 15:42:31;;;;;;;1.98;0.98;;;;;;;;;;5028928;28;20065;-65
2022/03/18 15:45:11;;;;;;;1.48;0.70;;;;;;;;;;4997974;28;20050;-65